createdAt,value
2023-01-11T00:00:48.001Z,8.30
2023-01-11T00:03:17.453Z,8.29
2023-01-11T00:05:46.010Z,8.29
2023-01-11T00:08:14.658Z,8.27
2023-01-11T00:10:44.169Z,8.26
2023-01-11T00:13:12.296Z,8.28
2023-01-11T00:15:40.837Z,8.30
2023-01-11T00:18:09.090Z,8.31
2023-01-11T00:20:39.643Z,8.33
2023-01-11T00:23:07.836Z,8.32
2023-01-11T00:25:37.181Z,8.28
2023-01-11T00:28:07.542Z,8.26
2023-01-11T00:30:36.760Z,8.26
2023-01-11T00:33:04.973Z,8.20
2023-01-11T00:35:33.527Z,8.18
2023-01-11T00:38:01.602Z,8.18
2023-01-11T00:40:29.721Z,8.16
2023-01-11T00:43:15.303Z,8.17
2023-01-11T00:46:02.402Z,8.20
2023-01-11T00:48:30.543Z,8.14
2023-01-11T00:50:59.494Z,8.14
2023-01-11T00:53:27.713Z,8.09
2023-01-11T00:55:55.992Z,8.08
2023-01-11T00:58:24.921Z,8.09
2023-01-11T01:00:54.410Z,8.06
2023-01-11T01:03:22.674Z,8.05
2023-01-11T01:05:55.613Z,8.00
2023-01-11T01:08:23.862Z,7.98
2023-01-11T01:10:52.980Z,7.93
2023-01-11T01:13:38.540Z,7.97
2023-01-11T01:16:09.099Z,7.94
2023-01-11T01:18:37.272Z,7.92
2023-01-11T01:21:05.580Z,7.92
2023-01-11T01:23:33.696Z,7.95
2023-01-11T01:26:04.822Z,7.91
2023-01-11T01:28:32.899Z,7.90
2023-01-11T01:31:01.255Z,7.90
2023-01-11T01:33:30.706Z,7.87
2023-01-11T01:35:58.762Z,7.91
2023-01-11T01:38:26.947Z,7.89
2023-01-11T01:40:56.964Z,7.89
2023-01-11T01:43:47.612Z,7.89
2023-01-11T01:46:16.008Z,7.87
2023-01-11T01:48:48.008Z,7.86
2023-01-11T01:51:20.429Z,7.82
2023-01-11T01:53:53.526Z,7.77
2023-01-11T01:56:31.515Z,7.75
2023-01-11T01:59:05.442Z,7.72
2023-01-11T02:01:49.083Z,7.70
2023-01-11T02:04:24.833Z,7.71
2023-01-11T02:07:02.611Z,7.73
2023-01-11T02:09:37.654Z,7.68
2023-01-11T02:12:08.105Z,7.67
2023-01-11T02:14:39.050Z,7.65
2023-01-11T02:17:07.232Z,7.62
2023-01-11T02:19:49.076Z,7.60
2023-01-11T02:23:06.334Z,7.61
2023-01-11T02:26:16.126Z,7.62
2023-01-11T02:28:53.234Z,7.64
2023-01-11T02:31:30.863Z,7.64
2023-01-11T02:34:12.107Z,7.61
2023-01-11T02:36:53.077Z,7.58
2023-01-11T02:39:32.040Z,7.45
2023-01-11T02:42:27.739Z,7.48
2023-01-11T02:45:07.188Z,7.42
2023-01-11T02:47:41.356Z,7.40
2023-01-11T02:50:18.026Z,7.39
2023-01-11T02:52:53.304Z,7.44
2023-01-11T02:55:24.980Z,7.40
2023-01-11T02:57:55.846Z,7.39
2023-01-11T03:00:27.048Z,7.40
2023-01-11T03:03:11.163Z,7.36
2023-01-11T03:05:47.128Z,7.37
2023-01-11T03:08:44.631Z,7.36
2023-01-11T03:11:37.558Z,7.40
2023-01-11T03:14:16.359Z,7.40
2023-01-11T03:16:53.099Z,7.40
2023-01-11T03:19:33.515Z,7.38
2023-01-11T03:22:07.362Z,7.39
2023-01-11T03:24:44.909Z,7.39
2023-01-11T03:27:23.155Z,7.35
2023-01-11T03:29:55.764Z,7.35
2023-01-11T03:32:33.020Z,7.34
2023-01-11T03:35:17.946Z,7.32
2023-01-11T03:37:53.135Z,7.36
2023-01-11T03:40:26.916Z,7.37
2023-01-11T03:43:14.729Z,7.40
2023-01-11T03:45:49.723Z,7.36
2023-01-11T03:48:25.847Z,7.33
2023-01-11T03:50:56.699Z,7.34
2023-01-11T03:53:28.497Z,7.37
2023-01-11T03:55:59.091Z,7.33
2023-01-11T03:58:28.452Z,7.32
2023-01-11T04:00:58.144Z,7.31
2023-01-11T04:03:28.326Z,7.30
2023-01-11T04:06:00.702Z,7.30
2023-01-11T04:08:29.398Z,7.31
2023-01-11T04:10:57.618Z,7.29
2023-01-11T04:13:26.196Z,7.31
2023-01-11T04:15:54.685Z,7.30
2023-01-11T04:18:22.861Z,7.31
2023-01-11T04:20:52.370Z,7.29
2023-01-11T04:23:20.587Z,7.25
2023-01-11T04:25:48.804Z,7.23
2023-01-11T04:28:17.322Z,7.24
2023-01-11T04:30:45.847Z,7.22
2023-01-11T04:33:14.688Z,7.23
2023-01-11T04:35:44.745Z,7.15
2023-01-11T04:38:14.386Z,7.15
2023-01-11T04:40:42.647Z,7.21
2023-01-11T04:43:09.779Z,7.23
2023-01-11T04:45:37.983Z,7.22
2023-01-11T04:48:06.667Z,7.21
2023-01-11T04:50:34.932Z,7.21
2023-01-11T04:53:03.047Z,7.20
2023-01-11T04:55:32.458Z,7.18
2023-01-11T04:58:00.552Z,7.19
2023-01-11T05:00:28.686Z,7.20
2023-01-11T05:03:00.423Z,7.17
2023-01-11T05:05:28.673Z,7.18
2023-01-11T05:07:56.797Z,7.17
2023-01-11T05:10:25.286Z,7.17
2023-01-11T05:12:54.830Z,7.18
2023-01-11T05:15:22.952Z,7.13
2023-01-11T05:17:51.588Z,7.12
2023-01-11T05:20:19.712Z,7.12
2023-01-11T05:22:47.902Z,7.13
2023-01-11T05:25:16.240Z,7.16
2023-01-11T05:27:44.344Z,7.16
2023-01-11T05:30:15.645Z,7.15
2023-01-11T05:32:43.827Z,7.17
2023-01-11T05:35:11.934Z,7.17
2023-01-11T05:37:40.182Z,7.15
2023-01-11T05:40:09.690Z,7.17
2023-01-11T05:42:37.884Z,7.18
2023-01-11T05:45:24.144Z,7.23
2023-01-11T05:47:55.501Z,7.27
2023-01-11T05:50:23.781Z,7.29
2023-01-11T05:52:51.927Z,7.29
2023-01-11T05:55:20.368Z,7.32
2023-01-11T05:57:48.430Z,7.32
2023-01-11T06:00:17.543Z,7.31
2023-01-11T06:02:45.842Z,7.30
2023-01-11T06:05:15.582Z,7.29
2023-01-11T06:07:43.927Z,7.36
2023-01-11T06:10:12.902Z,7.39
2023-01-11T06:12:41.000Z,7.42
2023-01-11T06:15:10.134Z,7.43
2023-01-11T06:17:38.368Z,7.45
2023-01-11T06:20:08.027Z,7.47
2023-01-11T06:22:37.577Z,7.49
2023-01-11T06:25:06.497Z,7.48
2023-01-11T06:27:34.626Z,7.65
2023-01-11T06:30:03.639Z,7.56
2023-01-11T06:32:31.686Z,7.57
2023-01-11T06:34:59.857Z,7.53
2023-01-11T06:37:27.899Z,7.49
2023-01-11T06:39:57.389Z,7.42
2023-01-11T06:42:25.727Z,7.38
2023-01-11T06:44:53.862Z,7.36
2023-01-11T06:47:22.118Z,7.32
2023-01-11T06:49:50.422Z,7.32
2023-01-11T06:52:18.596Z,7.32
2023-01-11T06:54:46.881Z,7.29
2023-01-11T06:57:16.453Z,7.32
2023-01-11T06:59:44.651Z,7.30
2023-01-11T07:02:13.114Z,7.31
2023-01-11T07:04:41.287Z,7.30
2023-01-11T07:07:09.376Z,7.29
2023-01-11T07:09:37.697Z,7.30
2023-01-11T07:12:06.370Z,7.32
2023-01-11T07:14:35.966Z,7.32
2023-01-11T07:17:04.149Z,7.32
2023-01-11T07:19:32.262Z,7.25
2023-01-11T07:22:00.431Z,7.26
2023-01-11T07:24:28.841Z,7.21
2023-01-11T07:26:59.663Z,7.24
2023-01-11T07:29:27.937Z,7.25
2023-01-11T07:31:58.200Z,7.30
2023-01-11T07:34:26.400Z,7.28
2023-01-11T07:36:54.505Z,7.27
2023-01-11T07:39:29.098Z,7.25
2023-01-11T07:42:20.629Z,7.29
2023-01-11T07:44:49.052Z,7.37
2023-01-11T07:47:18.737Z,7.33
2023-01-11T07:49:47.572Z,7.34
2023-01-11T07:52:15.705Z,7.35
2023-01-11T07:54:43.993Z,7.35
2023-01-11T07:57:12.288Z,7.36
2023-01-11T07:59:40.584Z,7.37
2023-01-11T08:02:08.697Z,7.39
2023-01-11T08:04:38.228Z,7.40
2023-01-11T08:07:06.561Z,7.45
2023-01-11T08:09:34.716Z,7.39
2023-01-11T08:12:20.052Z,7.39
2023-01-11T08:14:48.116Z,7.36
2023-01-11T08:17:17.728Z,7.34
2023-01-11T08:19:47.321Z,7.39
2023-01-11T08:22:15.508Z,7.36
2023-01-11T08:24:43.632Z,7.36
2023-01-11T08:27:14.843Z,7.33
2023-01-11T08:29:44.310Z,7.30
2023-01-11T08:32:12.785Z,7.32
2023-01-11T08:34:41.255Z,7.32
2023-01-11T08:37:10.865Z,7.34
2023-01-11T08:39:40.455Z,7.37
2023-01-11T08:42:08.859Z,7.40
2023-01-11T08:44:37.108Z,7.37
2023-01-11T08:47:05.272Z,7.37
2023-01-11T08:49:33.334Z,7.32
2023-01-11T08:52:01.506Z,7.31
2023-01-11T08:54:30.980Z,7.30
2023-01-11T08:56:59.048Z,7.28
2023-01-11T08:59:27.187Z,7.31
2023-01-11T09:01:55.333Z,7.32
2023-01-11T09:04:25.463Z,7.33
2023-01-11T09:06:54.627Z,7.39
2023-01-11T09:09:22.712Z,7.36
2023-01-11T09:11:56.699Z,7.35
2023-01-11T09:14:26.681Z,7.27
2023-01-11T09:16:55.549Z,7.27
2023-01-11T09:19:24.226Z,7.25
2023-01-11T09:21:53.260Z,7.27
2023-01-11T09:24:21.487Z,7.33
2023-01-11T09:26:49.717Z,7.30
2023-01-11T09:29:20.156Z,7.33
2023-01-11T09:31:48.323Z,7.34
2023-01-11T09:34:16.876Z,7.35
2023-01-11T09:36:48.896Z,7.36
2023-01-11T09:39:20.495Z,7.42
2023-01-11T09:42:01.979Z,7.40
2023-01-11T09:44:32.334Z,7.52
2023-01-11T09:47:13.880Z,7.56
2023-01-11T09:49:48.604Z,7.56
2023-01-11T09:52:28.961Z,7.63
2023-01-11T09:54:59.127Z,7.65
2023-01-11T09:57:42.750Z,7.62
2023-01-11T10:00:26.580Z,7.62
2023-01-11T10:03:21.082Z,7.62
2023-01-11T10:06:00.269Z,7.67
2023-01-11T10:18:22.022Z,7.73
2023-01-11T10:18:33.918Z,7.79
2023-01-11T10:20:40.057Z,7.77
2023-01-11T10:23:15.922Z,7.74
2023-01-11T10:25:51.802Z,7.70
2023-01-11T10:28:27.605Z,7.66
2023-01-11T10:31:11.476Z,7.68
2023-01-11T10:34:06.256Z,7.69
2023-01-11T10:36:55.627Z,7.67
2023-01-11T10:39:50.721Z,7.66
2023-01-11T10:42:22.890Z,7.67
2023-01-11T10:45:00.269Z,7.64
2023-01-11T10:47:34.939Z,7.63
2023-01-11T10:50:13.526Z,7.65
2023-01-11T10:52:52.040Z,7.55
2023-01-11T10:55:27.831Z,7.56
2023-01-11T10:58:11.267Z,7.47
2023-01-11T11:00:48.675Z,7.40
2023-01-11T11:03:37.183Z,7.36
2023-01-11T11:06:13.991Z,7.28
2023-01-11T11:08:50.321Z,7.21
2023-01-11T11:11:23.558Z,7.15
2023-01-11T11:14:00.579Z,7.18
2023-01-11T11:16:45.224Z,7.18
2023-01-11T11:19:18.719Z,7.18
2023-01-11T11:21:49.610Z,7.21
2023-01-11T11:24:22.487Z,7.23
2023-01-11T11:26:57.624Z,7.21
2023-01-11T11:29:30.854Z,7.19
2023-01-11T11:32:01.600Z,7.17
2023-01-11T11:34:31.153Z,7.21
2023-01-11T11:37:01.988Z,7.21
2023-01-11T11:39:32.213Z,7.32
2023-01-11T11:42:07.517Z,7.45
2023-01-11T11:44:36.095Z,7.61
2023-01-11T11:47:06.018Z,7.66
2023-01-11T11:49:35.410Z,7.72
2023-01-11T11:52:06.685Z,7.74
2023-01-11T11:54:37.975Z,7.77
2023-01-11T11:57:16.829Z,7.82
2023-01-11T11:59:47.683Z,7.83
2023-01-11T12:02:26.640Z,7.88
2023-01-11T12:04:56.119Z,7.96
2023-01-11T12:07:28.205Z,8.06
2023-01-11T12:10:01.468Z,8.14
2023-01-11T12:12:29.879Z,8.18
2023-01-11T12:15:22.494Z,8.26
2023-01-11T12:17:51.455Z,8.34
2023-01-11T12:20:30.207Z,8.30
2023-01-11T12:23:20.022Z,8.31
2023-01-11T12:26:03.789Z,8.26
2023-01-11T12:28:47.382Z,8.21
2023-01-11T12:31:25.355Z,8.11
2023-01-11T12:34:05.488Z,8.08
2023-01-11T12:36:42.455Z,8.09
2023-01-11T12:39:21.321Z,8.06
2023-01-11T12:42:01.259Z,8.05
2023-01-11T12:44:42.663Z,7.94
2023-01-11T12:47:43.851Z,7.87
2023-01-11T12:50:25.100Z,7.78
2023-01-11T12:53:15.148Z,7.83
2023-01-11T12:56:09.530Z,7.86
2023-01-11T12:58:45.046Z,7.90
2023-01-11T13:01:37.780Z,7.95
2023-01-11T13:04:41.098Z,7.97
2023-01-11T13:07:20.648Z,7.94
2023-01-11T13:10:04.589Z,7.94
2023-01-11T13:12:42.527Z,8.01
2023-01-11T13:15:24.997Z,7.97
2023-01-11T13:18:00.138Z,7.96
2023-01-11T13:20:59.208Z,8.01
2023-01-11T13:23:39.219Z,8.01
2023-01-11T13:26:17.809Z,8.00
2023-01-11T13:28:51.049Z,7.96
2023-01-11T13:31:20.675Z,7.90
2023-01-11T13:33:54.813Z,7.88
2023-01-11T13:36:27.119Z,7.86
2023-01-11T13:39:02.739Z,7.93
2023-01-11T13:41:35.341Z,7.92
2023-01-11T13:44:11.794Z,7.98
2023-01-11T13:46:59.412Z,8.00
2023-01-11T13:49:40.843Z,8.04
2023-01-11T13:52:13.767Z,8.08
2023-01-11T13:54:53.227Z,8.12
2023-01-11T13:57:28.603Z,8.14
2023-01-11T14:00:04.586Z,8.16
2023-01-11T14:02:41.209Z,8.16
2023-01-11T14:05:16.158Z,8.15
2023-01-11T14:08:00.798Z,8.09
2023-01-11T14:10:41.408Z,8.08
2023-01-11T14:13:48.966Z,8.09
2023-01-11T14:16:29.584Z,8.14
2023-01-11T14:19:07.079Z,8.13
2023-01-11T14:21:46.202Z,8.17
2023-01-11T14:24:15.630Z,8.16
2023-01-11T14:27:00.585Z,8.13
2023-01-11T14:29:59.256Z,8.08
2023-01-11T14:33:01.239Z,8.01
2023-01-11T14:36:08.292Z,7.98
2023-01-11T14:39:14.696Z,7.96
2023-01-11T14:42:16.265Z,7.91
2023-01-11T14:45:26.757Z,7.90
2023-01-11T14:48:20.586Z,7.84
2023-01-11T14:51:07.009Z,7.80
2023-01-11T14:53:42.639Z,7.82
2023-01-11T14:56:44.045Z,7.80
2023-01-11T14:59:33.271Z,7.79
2023-01-11T15:02:31.468Z,7.76
2023-01-11T15:05:31.228Z,7.75
2023-01-11T15:08:11.966Z,7.73
2023-01-11T15:10:48.195Z,7.77
2023-01-11T15:13:21.224Z,7.76
2023-01-11T15:16:07.744Z,7.78
2023-01-11T15:18:45.892Z,7.76
2023-01-11T15:21:22.750Z,7.74
2023-01-11T15:23:55.630Z,7.80
2023-01-11T15:26:26.285Z,7.82
2023-01-11T15:28:56.638Z,7.77
2023-01-11T15:31:39.298Z,7.79
2023-01-11T15:34:23.061Z,7.75
2023-01-11T15:37:13.887Z,7.76
2023-01-11T15:39:47.769Z,7.79
2023-01-11T15:42:51.969Z,7.77
2023-01-11T15:46:18.804Z,7.77
2023-01-11T15:49:10.098Z,7.79
2023-01-11T15:52:02.426Z,7.77
2023-01-11T15:54:54.237Z,7.76
2023-01-11T15:57:40.561Z,7.75
2023-01-11T16:00:36.196Z,7.75
2023-01-11T16:03:31.511Z,7.77
2023-01-11T16:06:09.319Z,7.78
2023-01-11T16:08:51.342Z,7.75
2023-01-11T16:11:29.841Z,7.77
2023-01-11T16:14:14.731Z,7.76
2023-01-11T16:16:45.030Z,7.76
2023-01-11T16:19:20.037Z,7.77
2023-01-11T16:21:51.867Z,7.75
2023-01-11T16:24:23.337Z,7.75
2023-01-11T16:26:54.188Z,7.77
2023-01-11T16:29:25.163Z,7.76
2023-01-11T16:31:56.798Z,7.77
2023-01-11T16:34:25.880Z,7.79
2023-01-11T16:36:54.080Z,7.78
2023-01-11T16:39:25.460Z,7.79
2023-01-11T16:41:56.287Z,7.79
2023-01-11T16:44:35.055Z,7.78
2023-01-11T16:47:13.375Z,7.76
2023-01-11T16:49:43.254Z,7.79
2023-01-11T16:52:39.009Z,7.80
2023-01-11T16:55:37.839Z,7.79
2023-01-11T16:58:08.189Z,7.83
2023-01-11T17:00:39.965Z,7.78
2023-01-11T17:03:30.169Z,7.83
2023-01-11T17:06:18.665Z,7.85
2023-01-11T17:08:50.108Z,7.85
2023-01-11T17:11:31.321Z,7.87
2023-01-11T17:14:32.008Z,7.90
2023-01-11T17:17:03.647Z,7.92
2023-01-11T17:19:34.309Z,7.94
2023-01-11T17:22:06.787Z,7.96
2023-01-11T17:24:41.145Z,7.99
2023-01-11T17:27:20.188Z,7.99
2023-01-11T17:29:50.449Z,8.00
2023-01-11T17:32:23.349Z,7.99
2023-01-11T17:34:53.997Z,7.99
2023-01-11T17:37:23.100Z,7.99
2023-01-11T17:39:53.730Z,7.98
2023-01-11T17:42:41.784Z,7.97
2023-01-11T17:45:23.245Z,7.93
2023-01-11T17:47:53.948Z,7.96
2023-01-11T17:50:30.675Z,7.95
2023-01-11T17:53:07.677Z,7.99
2023-01-11T17:55:36.567Z,7.99
2023-01-11T17:58:20.526Z,7.98
2023-01-11T18:01:19.321Z,7.94
2023-01-11T18:03:49.860Z,7.95
2023-01-11T18:06:25.386Z,7.98
2023-01-11T18:08:55.398Z,8.00
2023-01-11T18:11:29.273Z,8.00
2023-01-11T18:14:01.535Z,8.02
2023-01-11T18:16:30.080Z,8.00
2023-01-11T18:18:58.477Z,8.01
2023-01-11T18:21:40.813Z,8.00
2023-01-11T18:24:25.333Z,7.97
2023-01-11T18:27:07.719Z,7.98
2023-01-11T18:29:51.434Z,8.00
2023-01-11T18:32:20.221Z,7.99
2023-01-11T18:34:52.580Z,8.02
2023-01-11T18:37:21.644Z,8.02
2023-01-11T18:39:52.376Z,8.01
2023-01-11T18:42:24.152Z,8.03
2023-01-11T18:44:54.007Z,8.04
2023-01-11T18:47:24.398Z,8.06
2023-01-11T18:49:53.823Z,8.04
2023-01-11T18:52:28.008Z,8.04
2023-01-11T18:54:56.609Z,8.10
2023-01-11T18:57:25.354Z,8.08
2023-01-11T18:59:55.540Z,8.11
2023-01-11T19:02:26.072Z,8.11
2023-01-11T19:04:56.218Z,8.13
2023-01-11T19:07:25.372Z,8.14
2023-01-11T19:09:54.990Z,8.15
2023-01-11T19:12:26.019Z,8.17
2023-01-11T19:14:55.778Z,8.19
2023-01-11T19:17:23.963Z,8.18
2023-01-11T19:19:52.262Z,8.19
2023-01-11T19:22:23.400Z,8.20
2023-01-11T19:24:54.947Z,8.18
2023-01-11T19:27:25.501Z,8.22
2023-01-11T19:29:54.139Z,8.23
2023-01-11T19:32:25.453Z,8.23
2023-01-11T19:34:58.052Z,8.24
2023-01-11T19:37:27.074Z,8.26
2023-01-11T19:39:55.373Z,8.26
2023-01-11T19:42:24.018Z,8.25
2023-01-11T19:44:52.258Z,8.31
2023-01-11T19:47:20.551Z,8.31
2023-01-11T19:49:50.253Z,8.32
2023-01-11T19:52:21.821Z,8.31
2023-01-11T19:54:50.072Z,8.32
2023-01-11T19:57:20.773Z,8.32
2023-01-11T19:59:50.025Z,8.33
2023-01-11T20:02:21.192Z,8.35
2023-01-11T20:04:50.999Z,8.35
2023-01-11T20:07:19.116Z,8.35
2023-01-11T20:09:47.240Z,8.38
2023-01-11T20:12:16.320Z,8.41
2023-01-11T20:14:46.285Z,8.42
2023-01-11T20:17:15.996Z,8.51
2023-01-11T20:19:44.469Z,8.49
2023-01-11T20:22:14.077Z,8.50
2023-01-11T20:24:42.228Z,8.51
2023-01-11T20:27:10.443Z,8.51
2023-01-11T20:29:38.631Z,8.51
2023-01-11T20:32:31.029Z,8.51
2023-01-11T20:34:55.738Z,8.53
2023-01-11T20:37:25.359Z,8.54
2023-01-11T20:39:53.580Z,8.54
2023-01-11T20:42:21.652Z,8.54
2023-01-11T20:44:49.803Z,8.56
2023-01-11T20:47:18.934Z,8.59
2023-01-11T20:49:47.045Z,8.58
2023-01-11T20:52:15.338Z,8.59
2023-01-11T20:54:44.831Z,8.64
2023-01-11T20:57:13.414Z,8.63
2023-01-11T20:59:41.659Z,8.65
2023-01-11T21:02:13.604Z,8.67
2023-01-11T21:04:41.857Z,8.71
2023-01-11T21:07:10.060Z,8.83
2023-01-11T21:09:38.161Z,8.96
2023-01-11T21:12:09.600Z,9.05
2023-01-11T21:14:37.791Z,9.10
2023-01-11T21:17:06.055Z,9.14
2023-01-11T21:19:35.049Z,9.16
2023-01-11T21:22:03.327Z,9.18
2023-01-11T21:24:31.553Z,9.22
2023-01-11T21:26:59.617Z,9.34
2023-01-11T21:29:29.250Z,9.43
2023-01-11T21:31:57.419Z,9.50
2023-01-11T21:34:25.638Z,9.57
2023-01-11T21:36:53.926Z,9.63
2023-01-11T21:39:22.097Z,9.65
2023-01-11T21:41:59.914Z,9.68
2023-01-11T21:44:33.610Z,9.69
2023-01-11T21:47:02.722Z,9.71
2023-01-11T21:49:31.243Z,9.78
2023-01-11T21:51:59.458Z,9.75
2023-01-11T21:54:27.792Z,9.72
2023-01-11T21:56:56.017Z,9.76
2023-01-11T21:59:24.772Z,9.79
2023-01-11T22:01:54.653Z,9.85
2023-01-11T22:04:22.973Z,9.90
2023-01-11T22:06:57.661Z,9.93
2023-01-11T22:09:31.907Z,9.96
2023-01-11T22:12:00.060Z,10.00
2023-01-11T22:14:30.527Z,9.99
2023-01-11T22:16:59.977Z,10.02
2023-01-11T22:19:28.068Z,10.03
2023-01-11T22:21:57.688Z,10.04
2023-01-11T22:24:25.846Z,10.06
2023-01-11T22:26:54.373Z,10.12
2023-01-11T22:29:22.534Z,10.14
2023-01-11T22:31:55.137Z,10.18
2023-01-11T22:34:25.554Z,10.23
2023-01-11T22:36:54.342Z,10.29
2023-01-11T22:39:22.620Z,10.32
2023-01-11T22:41:51.452Z,10.39
2023-01-11T22:44:19.773Z,10.40
2023-01-11T22:46:48.066Z,10.43
2023-01-11T22:49:17.533Z,10.47
2023-01-11T22:51:47.038Z,10.52
2023-01-11T22:54:15.809Z,10.58
2023-01-11T22:56:44.590Z,10.60
2023-01-11T22:59:12.895Z,10.59
2023-01-11T23:01:42.683Z,10.60
2023-01-11T23:04:16.510Z,10.59
2023-01-11T23:06:46.349Z,10.65
2023-01-11T23:09:17.123Z,10.61
2023-01-11T23:12:03.644Z,10.79
2023-01-11T23:14:33.405Z,10.66
2023-01-11T23:17:04.414Z,10.69
2023-01-11T23:19:33.353Z,10.69
2023-01-11T23:22:02.924Z,10.70
2023-01-11T23:24:31.170Z,10.74
2023-01-11T23:26:59.541Z,10.74
2023-01-11T23:29:27.880Z,10.77
2023-01-11T23:31:56.037Z,10.78
2023-01-11T23:34:24.465Z,10.77
2023-01-11T23:36:52.574Z,10.80
2023-01-11T23:39:23.716Z,10.81
2023-01-11T23:42:09.470Z,10.80
2023-01-11T23:44:37.639Z,10.79
2023-01-11T23:47:24.093Z,10.85
2023-01-11T23:49:53.845Z,10.79
2023-01-11T23:52:24.002Z,10.78
2023-01-11T23:54:53.884Z,10.82
2023-01-11T23:57:23.519Z,10.83
2023-01-11T23:59:52.000Z,10.84
